sensor_id;sensor_type;location;lat;lon;timestamp;pressure;altitude;pressure_sealevel;temperature;humidity
52032;BME280;38044;45.148;39.604;2023-03-02T00:01:02;101341.91;;;-0.35;71.66
52032;BME280;38044;45.148;39.604;2023-03-02T00:03:29;101463.47;;;0.27;71.64
52032;BME280;38044;45.148;39.604;2023-03-02T00:05:58;101501.13;;;0.42;71.83
52032;BME280;38044;45.148;39.604;2023-03-02T00:08:24;101459.97;;;0.19;71.92
52032;BME280;38044;45.148;39.604;2023-03-02T00:10:51;101473.81;;;0.28;72.27
52032;BME280;38044;45.148;39.604;2023-03-02T00:13:19;101471.41;;;0.27;72.25
52032;BME280;38044;45.148;39.604;2023-03-02T00:15:45;101278.16;;;-0.86;72.16
52032;BME280;38044;45.148;39.604;2023-03-02T00:18:11;101333.97;;;-0.48;72.65
52032;BME280;38044;45.148;39.604;2023-03-02T00:20:37;101457.16;;;0.21;72.70
52032;BME280;38044;45.148;39.604;2023-03-02T00:23:03;101463.28;;;0.35;72.73
52032;BME280;38044;45.148;39.604;2023-03-02T00:25:29;101420.50;;;0.11;73.00
52032;BME280;38044;45.148;39.604;2023-03-02T00:27:55;101421.34;;;0.18;72.87
52032;BME280;38044;45.148;39.604;2023-03-02T00:30:21;101412.38;;;0.13;73.18
52032;BME280;38044;45.148;39.604;2023-03-02T00:32:47;101447.81;;;0.38;73.35
52032;BME280;38044;45.148;39.604;2023-03-02T00:35:13;101432.72;;;0.26;73.57
52032;BME280;38044;45.148;39.604;2023-03-02T00:37:38;101426.22;;;0.28;73.43
52032;BME280;38044;45.148;39.604;2023-03-02T00:40:06;101381.66;;;0.05;73.54
52032;BME280;38044;45.148;39.604;2023-03-02T00:42:35;101248.78;;;-0.77;73.34
52032;BME280;38044;45.148;39.604;2023-03-02T00:45:03;101427.69;;;0.44;73.31
52032;BME280;38044;45.148;39.604;2023-03-02T00:47:29;101378.19;;;0.11;72.93
52032;BME280;38044;45.148;39.604;2023-03-02T00:49:55;101423.59;;;0.35;73.29
52032;BME280;38044;45.148;39.604;2023-03-02T00:52:21;101305.94;;;-0.36;72.96
52032;BME280;38044;45.148;39.604;2023-03-02T00:54:48;101307.38;;;-0.40;73.12
52032;BME280;38044;45.148;39.604;2023-03-02T00:57:14;101394.69;;;0.13;73.30
52032;BME280;38044;45.148;39.604;2023-03-02T00:59:39;101386.34;;;0.03;73.62
52032;BME280;38044;45.148;39.604;2023-03-02T01:02:06;101420.75;;;0.30;73.74
52032;BME280;38044;45.148;39.604;2023-03-02T01:04:34;101317.13;;;-0.34;73.74
52032;BME280;38044;45.148;39.604;2023-03-02T01:07:06;101466.56;;;0.50;73.95
52032;BME280;38044;45.148;39.604;2023-03-02T01:09:33;101406.28;;;0.26;73.63
52032;BME280;38044;45.148;39.604;2023-03-02T01:11:58;101462.88;;;0.51;73.72
52032;BME280;38044;45.148;39.604;2023-03-02T01:14:24;101434.00;;;0.43;74.18
52032;BME280;38044;45.148;39.604;2023-03-02T01:16:50;101442.53;;;0.45;74.14
52032;BME280;38044;45.148;39.604;2023-03-02T01:19:16;101435.22;;;0.40;74.23
52032;BME280;38044;45.148;39.604;2023-03-02T01:21:42;101455.16;;;0.50;74.26
52032;BME280;38044;45.148;39.604;2023-03-02T01:24:09;101280.91;;;-0.60;74.10
52032;BME280;38044;45.148;39.604;2023-03-02T01:26:35;101424.78;;;0.26;74.36
52032;BME280;38044;45.148;39.604;2023-03-02T01:29:02;101401.00;;;0.12;74.51
52032;BME280;38044;45.148;39.604;2023-03-02T01:31:28;101452.69;;;0.41;74.33
52032;BME280;38044;45.148;39.604;2023-03-02T01:33:54;101435.78;;;0.22;74.91
52032;BME280;38044;45.148;39.604;2023-03-02T01:36:21;101459.59;;;0.36;74.58
52032;BME280;38044;45.148;39.604;2023-03-02T01:38:49;101476.31;;;0.43;74.72
52032;BME280;38044;45.148;39.604;2023-03-02T01:41:15;101426.63;;;0.18;75.30
52032;BME280;38044;45.148;39.604;2023-03-02T01:43:41;101436.00;;;0.21;75.47
52032;BME280;38044;45.148;39.604;2023-03-02T01:46:11;101423.34;;;0.16;75.52
52032;BME280;38044;45.148;39.604;2023-03-02T01:51:07;101475.06;;;0.39;75.24
52032;BME280;38044;45.148;39.604;2023-03-02T01:53:40;101473.88;;;0.35;75.15
52032;BME280;38044;45.148;39.604;2023-03-02T01:56:21;101335.81;;;-0.49;75.71
52032;BME280;38044;45.148;39.604;2023-03-02T01:58:51;101410.09;;;-0.10;75.56
52032;BME280;38044;45.148;39.604;2023-03-02T02:01:18;101247.44;;;-1.07;75.58
52032;BME280;38044;45.148;39.604;2023-03-02T02:03:47;101463.25;;;0.15;75.89
52032;BME280;38044;45.148;39.604;2023-03-02T02:06:25;101414.16;;;-0.08;76.36
52032;BME280;38044;45.148;39.604;2023-03-02T02:08:53;101301.31;;;-0.88;76.22
52032;BME280;38044;45.148;39.604;2023-03-02T02:11:21;101484.34;;;0.08;76.29
52032;BME280;38044;45.148;39.604;2023-03-02T02:13:46;101462.78;;;-0.02;76.31
52032;BME280;38044;45.148;39.604;2023-03-02T02:16:12;101465.59;;;-0.10;76.22
52032;BME280;38044;45.148;39.604;2023-03-02T02:18:40;101473.53;;;-0.04;76.07
52032;BME280;38044;45.148;39.604;2023-03-02T02:21:07;101469.69;;;-0.01;75.92
52032;BME280;38044;45.148;39.604;2023-03-02T02:23:54;101451.78;;;-0.06;75.90
52032;BME280;38044;45.148;39.604;2023-03-02T02:26:33;101482.75;;;0.14;76.00
52032;BME280;38044;45.148;39.604;2023-03-02T02:29:18;101484.34;;;0.08;76.08
52032;BME280;38044;45.148;39.604;2023-03-02T02:31:56;101466.38;;;-0.16;75.94
52032;BME280;38044;45.148;39.604;2023-03-02T02:37:09;101474.25;;;-0.30;76.09
52032;BME280;38044;45.148;39.604;2023-03-02T02:39:42;101312.06;;;-1.31;76.02
52032;BME280;38044;45.148;39.604;2023-03-02T02:42:13;101344.06;;;-1.06;75.97
52032;BME280;38044;45.148;39.604;2023-03-02T02:44:40;101291.06;;;-1.46;75.88
52032;BME280;38044;45.148;39.604;2023-03-02T02:47:18;101442.22;;;-0.55;76.03
52032;BME280;38044;45.148;39.604;2023-03-02T02:49:45;101443.63;;;-0.59;75.93
52032;BME280;38044;45.148;39.604;2023-03-02T02:52:18;101457.84;;;-0.60;76.47
52032;BME280;38044;45.148;39.604;2023-03-02T02:54:47;101444.06;;;-0.90;76.37
52032;BME280;38044;45.148;39.604;2023-03-02T02:57:15;101488.50;;;-0.65;76.52
52032;BME280;38044;45.148;39.604;2023-03-02T02:59:48;101468.34;;;-0.66;76.50
52032;BME280;38044;45.148;39.604;2023-03-02T03:02:24;101492.59;;;-0.56;76.86
52032;BME280;38044;45.148;39.604;2023-03-02T03:04:51;101479.97;;;-0.61;77.38
52032;BME280;38044;45.148;39.604;2023-03-02T03:07:27;101387.03;;;-1.19;77.23
52032;BME280;38044;45.148;39.604;2023-03-02T03:10:04;101494.00;;;-0.60;77.59
52032;BME280;38044;45.148;39.604;2023-03-02T03:12:37;101463.22;;;-0.75;78.15
52032;BME280;38044;45.148;39.604;2023-03-02T03:15:05;101467.81;;;-0.55;78.04
52032;BME280;38044;45.148;39.604;2023-03-02T03:17:32;101400.63;;;-0.81;77.56
52032;BME280;38044;45.148;39.604;2023-03-02T03:19:58;101314.31;;;-1.28;77.55
52032;BME280;38044;45.148;39.604;2023-03-02T03:22:32;101442.69;;;-0.44;77.14
52032;BME280;38044;45.148;39.604;2023-03-02T03:24:59;101252.41;;;-1.61;76.84
52032;BME280;38044;45.148;39.604;2023-03-02T03:27:24;101457.31;;;-0.42;76.73
52032;BME280;38044;45.148;39.604;2023-03-02T03:29:50;101432.03;;;-0.64;76.84
52032;BME280;38044;45.148;39.604;2023-03-02T03:32:17;101332.41;;;-1.25;77.00
52032;BME280;38044;45.148;39.604;2023-03-02T03:34:44;101272.00;;;-1.76;77.40
52032;BME280;38044;45.148;39.604;2023-03-02T03:37:13;101456.84;;;-0.59;77.78
52032;BME280;38044;45.148;39.604;2023-03-02T03:39:39;101310.00;;;-1.64;77.98
52032;BME280;38044;45.148;39.604;2023-03-02T03:42:05;101456.75;;;-0.72;78.05
52032;BME280;38044;45.148;39.604;2023-03-02T03:44:32;101458.56;;;-0.73;78.21
52032;BME280;38044;45.148;39.604;2023-03-02T03:46:58;101454.72;;;-0.77;78.37
52032;BME280;38044;45.148;39.604;2023-03-02T03:49:24;101296.13;;;-1.79;78.40
52032;BME280;38044;45.148;39.604;2023-03-02T03:51:50;101312.34;;;-1.76;78.60
52032;BME280;38044;45.148;39.604;2023-03-02T03:54:17;101459.72;;;-0.88;78.52
52032;BME280;38044;45.148;39.604;2023-03-02T03:56:46;101459.03;;;-0.97;78.68
52032;BME280;38044;45.148;39.604;2023-03-02T03:59:16;101316.13;;;-1.85;78.93
52032;BME280;38044;45.148;39.604;2023-03-02T04:01:54;101457.06;;;-0.88;79.15
52032;BME280;38044;45.148;39.604;2023-03-02T04:04:23;101386.88;;;-1.39;79.00
52032;BME280;38044;45.148;39.604;2023-03-02T04:06:51;101402.84;;;-1.19;79.07
52032;BME280;38044;45.148;39.604;2023-03-02T04:09:17;101465.47;;;-0.72;79.27
52032;BME280;38044;45.148;39.604;2023-03-02T04:11:45;101386.78;;;-1.24;78.90
52032;BME280;38044;45.148;39.604;2023-03-02T04:14:11;101478.91;;;-0.66;79.09
52032;BME280;38044;45.148;39.604;2023-03-02T04:16:38;101495.81;;;-0.61;79.39
52032;BME280;38044;45.148;39.604;2023-03-02T04:19:05;101477.75;;;-0.57;79.70
52032;BME280;38044;45.148;39.604;2023-03-02T04:21:45;101473.16;;;-0.49;79.99
52032;BME280;38044;45.148;39.604;2023-03-02T04:24:12;101326.84;;;-1.37;79.89
52032;BME280;38044;45.148;39.604;2023-03-02T04:26:40;101483.44;;;-0.26;79.90
52032;BME280;38044;45.148;39.604;2023-03-02T04:29:07;101455.19;;;-0.18;79.42
52032;BME280;38044;45.148;39.604;2023-03-02T04:31:33;101443.53;;;0.24;78.90
52032;BME280;38044;45.148;39.604;2023-03-02T04:33:59;101484.91;;;0.98;77.65
52032;BME280;38044;45.148;39.604;2023-03-02T04:36:29;101447.28;;;1.54;76.30
52032;BME280;38044;45.148;39.604;2023-03-02T04:38:55;101496.50;;;2.34;74.44
52032;BME280;38044;45.148;39.604;2023-03-02T04:41:21;101479.44;;;3.05;72.48
52032;BME280;38044;45.148;39.604;2023-03-02T04:43:47;101461.91;;;3.77;69.89
52032;BME280;38044;45.148;39.604;2023-03-02T04:46:15;101508.13;;;4.97;66.89
52032;BME280;38044;45.148;39.604;2023-03-02T04:48:43;101511.78;;;5.90;64.37
52032;BME280;38044;45.148;39.604;2023-03-02T04:51:17;101370.34;;;6.19;61.83
52032;BME280;38044;45.148;39.604;2023-03-02T04:53:55;101523.88;;;7.90;59.71
52032;BME280;38044;45.148;39.604;2023-03-02T04:56:21;101520.22;;;8.45;57.50
52032;BME280;38044;45.148;39.604;2023-03-02T04:58:47;101523.81;;;8.07;56.44
52032;BME280;38044;45.148;39.604;2023-03-02T05:01:14;101394.41;;;6.36;57.91
52032;BME280;38044;45.148;39.604;2023-03-02T05:03:40;101428.03;;;5.51;59.95
52032;BME280;38044;45.148;39.604;2023-03-02T05:06:06;101524.03;;;5.27;61.72
52032;BME280;38044;45.148;39.604;2023-03-02T05:08:33;101512.00;;;4.59;62.99
52032;BME280;38044;45.148;39.604;2023-03-02T05:11:00;101532.28;;;4.30;64.58
52032;BME280;38044;45.148;39.604;2023-03-02T05:13:26;101401.97;;;3.08;65.42
52032;BME280;38044;45.148;39.604;2023-03-02T05:15:52;101544.16;;;3.79;66.18
52032;BME280;38044;45.148;39.604;2023-03-02T05:18:19;101514.16;;;3.53;66.57
52032;BME280;38044;45.148;39.604;2023-03-02T05:20:45;101471.28;;;3.06;67.36
52032;BME280;38044;45.148;39.604;2023-03-02T05:23:13;101516.72;;;3.42;67.74
52032;BME280;38044;45.148;39.604;2023-03-02T05:25:52;101522.03;;;3.42;67.14
52032;BME280;38044;45.148;39.604;2023-03-02T05:28:19;101513.16;;;3.29;67.58
52032;BME280;38044;45.148;39.604;2023-03-02T05:30:46;101423.41;;;2.63;67.93
52032;BME280;38044;45.148;39.604;2023-03-02T05:33:12;101563.69;;;3.48;68.03
52032;BME280;38044;45.148;39.604;2023-03-02T05:35:38;101538.22;;;3.15;68.13
52032;BME280;38044;45.148;39.604;2023-03-02T05:38:04;101543.53;;;3.15;68.53
52032;BME280;38044;45.148;39.604;2023-03-02T05:40:29;101565.09;;;3.25;68.23
52032;BME280;38044;45.148;39.604;2023-03-02T05:42:55;101485.84;;;2.72;68.39
52032;BME280;38044;45.148;39.604;2023-03-02T05:45:25;101540.53;;;3.05;68.69
52032;BME280;38044;45.148;39.604;2023-03-02T05:47:52;101556.31;;;3.00;68.90
52032;BME280;38044;45.148;39.604;2023-03-02T05:50:18;101540.06;;;2.89;68.73
52032;BME280;38044;45.148;39.604;2023-03-02T05:52:44;101564.03;;;3.08;68.80
52032;BME280;38044;45.148;39.604;2023-03-02T05:55:12;101555.00;;;3.09;68.78
52032;BME280;38044;45.148;39.604;2023-03-02T05:57:38;101542.13;;;2.87;68.91
52032;BME280;38044;45.148;39.604;2023-03-02T06:00:04;101481.75;;;2.44;68.98
52032;BME280;38044;45.148;39.604;2023-03-02T06:02:31;101486.88;;;2.39;69.42
52032;BME280;38044;45.148;39.604;2023-03-02T06:04:56;101603.19;;;3.19;69.32
52032;BME280;38044;45.148;39.604;2023-03-02T06:07:22;101565.75;;;2.96;69.06
52032;BME280;38044;45.148;39.604;2023-03-02T06:09:48;101607.44;;;3.20;68.94
52032;BME280;38044;45.148;39.604;2023-03-02T06:12:15;101573.47;;;3.04;68.69
52032;BME280;38044;45.148;39.604;2023-03-02T06:14:42;101605.22;;;3.17;68.96
52032;BME280;38044;45.148;39.604;2023-03-02T06:17:09;101611.06;;;3.32;68.94
52032;BME280;38044;45.148;39.604;2023-03-02T06:19:35;101527.75;;;2.95;68.93
52032;BME280;38044;45.148;39.604;2023-03-02T06:22:01;101616.75;;;3.61;68.77
52032;BME280;38044;45.148;39.604;2023-03-02T06:24:26;101565.38;;;3.42;68.43
52032;BME280;38044;45.148;39.604;2023-03-02T06:26:53;101446.16;;;2.77;68.04
52032;BME280;38044;45.148;39.604;2023-03-02T06:29:20;101431.72;;;2.73;67.80
52032;BME280;38044;45.148;39.604;2023-03-02T06:31:45;101625.81;;;3.97;67.90
52032;BME280;38044;45.148;39.604;2023-03-02T06:34:11;101615.00;;;3.92;67.86
52032;BME280;38044;45.148;39.604;2023-03-02T06:36:37;101625.88;;;3.90;67.57
52032;BME280;38044;45.148;39.604;2023-03-02T06:39:04;101610.53;;;3.92;67.16
52032;BME280;38044;45.148;39.604;2023-03-02T06:41:30;101645.78;;;4.24;66.93
52032;BME280;38044;45.148;39.604;2023-03-02T06:43:59;101599.88;;;3.92;67.06
52032;BME280;38044;45.148;39.604;2023-03-02T06:46:25;101602.63;;;4.04;67.11
52032;BME280;38044;45.148;39.604;2023-03-02T06:48:50;101621.22;;;4.22;66.90
52032;BME280;38044;45.148;39.604;2023-03-02T06:51:16;101615.31;;;4.20;66.75
52032;BME280;38044;45.148;39.604;2023-03-02T06:53:42;101649.91;;;4.39;66.54
52032;BME280;38044;45.148;39.604;2023-03-02T06:56:08;101669.72;;;4.43;66.80
52032;BME280;38044;45.148;39.604;2023-03-02T06:58:35;101656.06;;;4.39;66.27
52032;BME280;38044;45.148;39.604;2023-03-02T07:01:02;101647.56;;;4.31;66.30
52032;BME280;38044;45.148;39.604;2023-03-02T07:03:30;101621.59;;;4.07;66.47
52032;BME280;38044;45.148;39.604;2023-03-02T07:06:01;101610.72;;;3.91;66.51
52032;BME280;38044;45.148;39.604;2023-03-02T07:08:27;101654.25;;;4.15;66.95
52032;BME280;38044;45.148;39.604;2023-03-02T07:10:52;101627.81;;;4.01;66.62
52032;BME280;38044;45.148;39.604;2023-03-02T07:13:18;101654.38;;;4.26;66.68
52032;BME280;38044;45.148;39.604;2023-03-02T07:15:44;101661.00;;;4.36;66.38
52032;BME280;38044;45.148;39.604;2023-03-02T07:18:10;101490.59;;;3.38;66.06
52032;BME280;38044;45.148;39.604;2023-03-02T07:20:36;101661.47;;;4.33;66.16
52032;BME280;38044;45.148;39.604;2023-03-02T07:23:03;101622.63;;;4.25;66.24
52032;BME280;38044;45.148;39.604;2023-03-02T07:25:29;101655.66;;;4.72;65.51
52032;BME280;38044;45.148;39.604;2023-03-02T07:27:55;101654.38;;;5.05;64.68
52032;BME280;38044;45.148;39.604;2023-03-02T07:30:21;101620.78;;;5.04;64.34
52032;BME280;38044;45.148;39.604;2023-03-02T07:32:47;101662.69;;;5.39;63.71
52032;BME280;38044;45.148;39.604;2023-03-02T07:35:13;101624.66;;;5.32;63.05
52032;BME280;38044;45.148;39.604;2023-03-02T07:37:41;101514.13;;;4.81;62.49
52032;BME280;38044;45.148;39.604;2023-03-02T07:40:10;101631.50;;;5.86;62.22
52032;BME280;38044;45.148;39.604;2023-03-02T07:42:37;101665.97;;;6.23;60.92
52032;BME280;38044;45.148;39.604;2023-03-02T07:45:04;101637.53;;;6.29;60.52
52032;BME280;38044;45.148;39.604;2023-03-02T07:47:30;101633.06;;;6.46;59.96
52032;BME280;38044;45.148;39.604;2023-03-02T07:49:56;101653.53;;;6.81;59.59
52032;BME280;38044;45.148;39.604;2023-03-02T07:52:22;101665.91;;;7.16;58.78
52032;BME280;38044;45.148;39.604;2023-03-02T07:54:48;101643.56;;;7.22;58.16
52032;BME280;38044;45.148;39.604;2023-03-02T07:57:14;101651.50;;;7.34;57.65
52032;BME280;38044;45.148;39.604;2023-03-02T07:59:41;101684.91;;;7.65;57.13
52032;BME280;38044;45.148;39.604;2023-03-02T08:02:17;101653.53;;;7.77;56.76
52032;BME280;38044;45.148;39.604;2023-03-02T08:04:45;101690.97;;;8.11;56.50
52032;BME280;38044;45.148;39.604;2023-03-02T08:07:10;101692.03;;;8.49;55.73
52032;BME280;38044;45.148;39.604;2023-03-02T08:09:39;101559.91;;;8.26;54.48
52032;BME280;38044;45.148;39.604;2023-03-02T08:12:05;101686.53;;;9.37;53.53
52032;BME280;38044;45.148;39.604;2023-03-02T08:14:31;101685.72;;;9.68;52.69
52032;BME280;38044;45.148;39.604;2023-03-02T08:16:56;101654.09;;;9.81;52.31
52032;BME280;38044;45.148;39.604;2023-03-02T08:19:22;101686.75;;;10.47;51.68
52032;BME280;38044;45.148;39.604;2023-03-02T08:21:48;101612.28;;;10.48;51.03
52032;BME280;38044;45.148;39.604;2023-03-02T08:24:14;101567.34;;;10.38;49.30
52032;BME280;38044;45.148;39.604;2023-03-02T08:26:39;101679.34;;;10.95;49.89
52032;BME280;38044;45.148;39.604;2023-03-02T08:29:06;101677.22;;;11.13;48.76
52032;BME280;38044;45.148;39.604;2023-03-02T08:31:31;101684.25;;;11.14;49.41
52032;BME280;38044;45.148;39.604;2023-03-02T08:33:57;101688.53;;;11.15;49.17
52032;BME280;38044;45.148;39.604;2023-03-02T08:36:24;101692.63;;;11.27;49.23
52032;BME280;38044;45.148;39.604;2023-03-02T08:38:50;101662.44;;;11.20;48.56
52032;BME280;38044;45.148;39.604;2023-03-02T08:41:20;101557.72;;;10.73;47.40
52032;BME280;38044;45.148;39.604;2023-03-02T08:43:47;101611.53;;;10.73;47.55
52032;BME280;38044;45.148;39.604;2023-03-02T08:46:15;101700.88;;;10.95;47.96
52032;BME280;38044;45.148;39.604;2023-03-02T08:48:41;101704.56;;;10.69;47.88
52032;BME280;38044;45.148;39.604;2023-03-02T08:51:11;101665.06;;;10.17;47.58
52032;BME280;38044;45.148;39.604;2023-03-02T08:53:40;101692.44;;;9.71;47.80
52032;BME280;38044;45.148;39.604;2023-03-02T08:56:17;101667.75;;;9.74;48.22
52032;BME280;38044;45.148;39.604;2023-03-02T08:58:44;101611.31;;;10.11;47.31
52032;BME280;38044;45.148;39.604;2023-03-02T09:01:18;101549.63;;;11.44;45.71
52032;BME280;38044;45.148;39.604;2023-03-02T09:03:44;101685.41;;;13.48;42.97
52032;BME280;38044;45.148;39.604;2023-03-02T09:06:10;101692.66;;;14.35;41.33
52032;BME280;38044;45.148;39.604;2023-03-02T09:08:36;101674.19;;;14.85;39.61
52032;BME280;38044;45.148;39.604;2023-03-02T09:11:03;101688.88;;;15.50;39.16
52032;BME280;38044;45.148;39.604;2023-03-02T09:13:29;101565.69;;;15.15;38.44
52032;BME280;38044;45.148;39.604;2023-03-02T09:15:54;101645.16;;;16.17;37.35
52032;BME280;38044;45.148;39.604;2023-03-02T09:18:20;101620.94;;;15.93;36.82
52032;BME280;38044;45.148;39.604;2023-03-02T09:20:50;101649.97;;;16.84;36.95
52032;BME280;38044;45.148;39.604;2023-03-02T09:23:16;101677.56;;;16.63;35.05
52032;BME280;38044;45.148;39.604;2023-03-02T09:25:42;101669.31;;;17.05;35.11
52032;BME280;38044;45.148;39.604;2023-03-02T09:28:10;101551.19;;;16.21;33.97
52032;BME280;38044;45.148;39.604;2023-03-02T09:30:36;101647.56;;;15.58;34.83
52032;BME280;38044;45.148;39.604;2023-03-02T09:33:02;101637.38;;;14.66;36.05
52032;BME280;38044;45.148;39.604;2023-03-02T09:35:28;101568.13;;;13.25;37.19
52032;BME280;38044;45.148;39.604;2023-03-02T09:37:54;101541.28;;;12.26;38.56
52032;BME280;38044;45.148;39.604;2023-03-02T09:40:23;101656.66;;;12.29;39.77
52032;BME280;38044;45.148;39.604;2023-03-02T09:45:34;101653.34;;;10.38;42.30
52032;BME280;38044;45.148;39.604;2023-03-02T09:50:35;101671.03;;;8.90;43.74
52032;BME280;38044;45.148;39.604;2023-03-02T09:55:36;101652.16;;;8.13;45.93
52032;BME280;38044;45.148;39.604;2023-03-02T09:58:11;101514.94;;;7.23;45.93
52032;BME280;38044;45.148;39.604;2023-03-02T10:00:40;101656.28;;;8.21;46.32
52032;BME280;38044;45.148;39.604;2023-03-02T10:03:20;101596.16;;;8.12;46.59
52032;BME280;38044;45.148;39.604;2023-03-02T10:05:51;101494.66;;;7.44;46.18
52032;BME280;38044;45.148;39.604;2023-03-02T10:08:25;101653.63;;;8.21;45.77
52032;BME280;38044;45.148;39.604;2023-03-02T10:16:36;101655.34;;;8.32;47.61
52032;BME280;38044;45.148;39.604;2023-03-02T10:19:52;101658.41;;;8.41;46.97
52032;BME280;38044;45.148;39.604;2023-03-02T10:22:27;101619.34;;;8.23;47.20
52032;BME280;38044;45.148;39.604;2023-03-02T10:28:04;101617.72;;;7.83;47.32
52032;BME280;38044;45.148;39.604;2023-03-02T10:30:36;101635.34;;;7.79;47.42
52032;BME280;38044;45.148;39.604;2023-03-02T10:33:23;101662.41;;;8.00;47.71
52032;BME280;38044;45.148;39.604;2023-03-02T10:35:51;101634.56;;;7.79;47.90
52032;BME280;38044;45.148;39.604;2023-03-02T10:38:19;101671.19;;;7.78;47.72
52032;BME280;38044;45.148;39.604;2023-03-02T10:40:54;101560.47;;;7.12;47.97
52032;BME280;38044;45.148;39.604;2023-03-02T10:43:34;101670.97;;;7.80;47.66
52032;BME280;38044;45.148;39.604;2023-03-02T10:46:03;101665.22;;;7.71;47.44
52032;BME280;38044;45.148;39.604;2023-03-02T10:48:32;101619.41;;;7.51;47.71
52032;BME280;38044;45.148;39.604;2023-03-02T10:51:03;101661.44;;;7.89;46.76
52032;BME280;38044;45.148;39.604;2023-03-02T10:53:29;101623.38;;;7.65;45.91
52032;BME280;38044;45.148;39.604;2023-03-02T10:55:54;101658.88;;;7.77;46.25
52032;BME280;38044;45.148;39.604;2023-03-02T10:58:28;101636.47;;;7.83;45.85
52032;BME280;38044;45.148;39.604;2023-03-02T11:03:22;101537.88;;;7.36;45.74
52032;BME280;38044;45.148;39.604;2023-03-02T11:05:50;101669.50;;;8.28;45.33
52032;BME280;38044;45.148;39.604;2023-03-02T11:08:28;101670.88;;;8.30;45.18
52032;BME280;38044;45.148;39.604;2023-03-02T11:10:59;101529.34;;;7.39;45.26
52032;BME280;38044;45.148;39.604;2023-03-02T11:13:32;101552.94;;;7.81;44.97
52032;BME280;38044;45.148;39.604;2023-03-02T11:18:49;101650.31;;;8.80;44.53
52032;BME280;38044;45.148;39.604;2023-03-02T11:21:40;101650.41;;;8.90;44.61
52032;BME280;38044;45.148;39.604;2023-03-02T11:26:52;101691.97;;;8.66;44.15
52032;BME280;38044;45.148;39.604;2023-03-02T11:29:29;101605.75;;;8.08;44.90
52032;BME280;38044;45.148;39.604;2023-03-02T11:37:19;101675.69;;;9.27;44.40
52032;BME280;38044;45.148;39.604;2023-03-02T11:44:48;101677.88;;;9.62;43.58
52032;BME280;38044;45.148;39.604;2023-03-02T11:47:15;101571.47;;;8.81;43.38
52032;BME280;38044;45.148;39.604;2023-03-02T11:50:05;101677.75;;;9.79;43.33
52032;BME280;38044;45.148;39.604;2023-03-02T11:52:37;101687.78;;;9.61;42.56
52032;BME280;38044;45.148;39.604;2023-03-02T11:55:18;101657.25;;;9.35;42.41
52032;BME280;38044;45.148;39.604;2023-03-02T12:00:39;101674.25;;;9.46;43.53
52032;BME280;38044;45.148;39.604;2023-03-02T12:05:42;101672.97;;;9.21;43.27
52032;BME280;38044;45.148;39.604;2023-03-02T12:11:05;101688.19;;;9.43;43.25
52032;BME280;38044;45.148;39.604;2023-03-02T12:15:59;101682.78;;;8.84;43.14
52032;BME280;38044;45.148;39.604;2023-03-02T12:18:28;101673.34;;;8.54;43.36
52032;BME280;38044;45.148;39.604;2023-03-02T12:23:24;101692.16;;;8.59;44.27
52032;BME280;38044;45.148;39.604;2023-03-02T12:26:03;101700.69;;;8.78;44.13
52032;BME280;38044;45.148;39.604;2023-03-02T12:28:33;101569.63;;;7.88;44.06
52032;BME280;38044;45.148;39.604;2023-03-02T12:31:08;101563.69;;;7.86;43.90
52032;BME280;38044;45.148;39.604;2023-03-02T12:33:44;101707.25;;;8.65;43.79
52032;BME280;38044;45.148;39.604;2023-03-02T12:36:34;101696.00;;;8.68;43.82
52032;BME280;38044;45.148;39.604;2023-03-02T12:39:19;101559.63;;;7.62;43.31
52032;BME280;38044;45.148;39.604;2023-03-02T12:44:49;101556.91;;;7.40;44.37
52032;BME280;38044;45.148;39.604;2023-03-02T12:47:19;101703.16;;;8.41;44.34
52032;BME280;38044;45.148;39.604;2023-03-02T12:50:15;101676.94;;;8.43;44.04
52032;BME280;38044;45.148;39.604;2023-03-02T12:52:42;101707.53;;;8.47;43.70
52032;BME280;38044;45.148;39.604;2023-03-02T12:57:37;101693.88;;;8.09;43.65
52032;BME280;38044;45.148;39.604;2023-03-02T13:00:16;101680.44;;;7.87;44.07
52032;BME280;38044;45.148;39.604;2023-03-02T13:02:48;101662.53;;;7.71;44.34
52032;BME280;38044;45.148;39.604;2023-03-02T13:05:28;101579.28;;;7.17;44.53
52032;BME280;38044;45.148;39.604;2023-03-02T13:08:07;101556.91;;;6.89;44.85
52032;BME280;38044;45.148;39.604;2023-03-02T13:10:41;101584.06;;;6.69;45.04
52032;BME280;38044;45.148;39.604;2023-03-02T13:16:05;101566.59;;;6.33;46.00
52032;BME280;38044;45.148;39.604;2023-03-02T13:18:32;101681.03;;;6.93;46.07
52032;BME280;38044;45.148;39.604;2023-03-02T13:21:00;101580.75;;;6.34;46.68
52032;BME280;38044;45.148;39.604;2023-03-02T13:23:28;101629.91;;;6.61;46.35
52032;BME280;38044;45.148;39.604;2023-03-02T13:25:57;101657.53;;;6.67;46.72
52032;BME280;38044;45.148;39.604;2023-03-02T13:28:26;101600.72;;;6.31;46.86
52032;BME280;38044;45.148;39.604;2023-03-02T13:30:59;101688.34;;;6.86;47.08
52032;BME280;38044;45.148;39.604;2023-03-02T13:33:26;101544.75;;;5.96;46.70
52032;BME280;38044;45.148;39.604;2023-03-02T13:35:53;101664.81;;;6.71;47.21
52032;BME280;38044;45.148;39.604;2023-03-02T13:38:26;101621.09;;;6.08;46.59
52032;BME280;38044;45.148;39.604;2023-03-02T13:40:54;101680.25;;;6.29;47.58
52032;BME280;38044;45.148;39.604;2023-03-02T13:45:53;101502.13;;;5.13;47.79
52032;BME280;38044;45.148;39.604;2023-03-02T13:48:20;101647.53;;;5.86;47.84
52032;BME280;38044;45.148;39.604;2023-03-02T13:51:11;101653.22;;;5.90;47.92
52032;BME280;38044;45.148;39.604;2023-03-02T13:53:43;101655.78;;;5.85;48.36
52032;BME280;38044;45.148;39.604;2023-03-02T13:56:16;101660.53;;;5.83;48.03
52032;BME280;38044;45.148;39.604;2023-03-02T13:58:43;101627.00;;;5.52;48.16
52032;BME280;38044;45.148;39.604;2023-03-02T14:01:10;101637.66;;;5.52;48.43